createdAt,value
2019-01-23T00:00:01.253Z,40.83
2019-01-23T00:02:30.345Z,44.13
2019-01-23T00:04:59.330Z,38.90
2019-01-23T00:07:28.286Z,41.80
2019-01-23T00:09:57.458Z,39.53
2019-01-23T00:12:26.458Z,38.03
2019-01-23T00:14:55.586Z,40.07
2019-01-23T00:17:24.613Z,36.20
2019-01-23T00:19:53.763Z,40.00
2019-01-23T00:22:22.836Z,38.33
2019-01-23T00:24:52.006Z,37.97
2019-01-23T00:27:21.110Z,38.40
2019-01-23T00:29:50.240Z,37.47
2019-01-23T00:32:19.294Z,38.63
2019-01-23T00:34:48.430Z,37.70
2019-01-23T00:37:17.441Z,36.90
2019-01-23T00:39:46.469Z,38.00
2019-01-23T00:42:15.435Z,37.17
2019-01-23T00:44:59.970Z,37.87
2019-01-23T00:47:28.991Z,38.00
2019-01-23T00:49:58.157Z,38.87
2019-01-23T00:52:27.227Z,36.93
2019-01-23T00:54:56.297Z,38.90
2019-01-23T00:57:25.243Z,36.87
2019-01-23T00:59:54.287Z,37.63
2019-01-23T01:02:23.376Z,36.40
2019-01-23T01:04:52.333Z,35.50
2019-01-23T01:07:21.315Z,32.97
2019-01-23T01:09:50.521Z,35.73
2019-01-23T01:12:19.601Z,34.13
2019-01-23T01:14:48.767Z,36.93
2019-01-23T01:17:17.725Z,34.27
2019-01-23T01:19:46.803Z,34.90
2019-01-23T01:22:15.818Z,32.57
2019-01-23T01:24:44.813Z,35.00
2019-01-23T01:27:13.839Z,31.83
2019-01-23T01:29:42.899Z,33.93
2019-01-23T01:32:11.887Z,33.70
2019-01-23T01:34:40.916Z,31.37
2019-01-23T01:37:09.983Z,32.83
2019-01-23T01:39:38.989Z,34.20
2019-01-23T01:42:07.979Z,32.33
2019-01-23T01:44:37.693Z,34.03
2019-01-23T01:47:06.691Z,32.60
2019-01-23T01:49:35.647Z,32.67
2019-01-23T01:52:04.675Z,31.40
2019-01-23T01:54:33.813Z,33.30
2019-01-23T01:57:02.815Z,31.20
2019-01-23T01:59:31.781Z,33.77
2019-01-23T02:02:00.786Z,31.67
2019-01-23T02:04:29.896Z,34.13
2019-01-23T02:06:58.925Z,32.17
2019-01-23T02:09:27.940Z,31.97
2019-01-23T02:11:56.890Z,33.27
2019-01-23T02:14:25.993Z,32.10
2019-01-23T02:16:55.050Z,34.93
2019-01-23T02:19:23.991Z,32.20
2019-01-23T02:21:52.984Z,34.97
2019-01-23T02:24:22.016Z,34.30
2019-01-23T02:26:51.117Z,33.20
2019-01-23T02:29:20.154Z,34.23
2019-01-23T02:31:49.188Z,33.67
2019-01-23T02:34:18.284Z,34.17
2019-01-23T02:36:47.320Z,33.50
2019-01-23T02:39:16.443Z,35.73
2019-01-23T02:41:45.510Z,34.83
2019-01-23T02:44:14.773Z,34.23
2019-01-23T02:46:43.832Z,32.27
2019-01-23T02:49:12.873Z,34.43
2019-01-23T02:51:41.974Z,35.77
2019-01-23T02:54:10.998Z,34.33
2019-01-23T02:56:39.944Z,34.47
2019-01-23T02:59:08.948Z,36.63
2019-01-23T03:01:37.935Z,34.50
2019-01-23T03:04:06.991Z,35.47
2019-01-23T03:06:36.034Z,34.50
2019-01-23T03:09:07.563Z,34.33
2019-01-23T03:11:36.625Z,34.60
2019-01-23T03:14:05.686Z,36.50
2019-01-23T03:16:34.774Z,34.53
2019-01-23T03:19:03.833Z,35.50
2019-01-23T03:21:32.839Z,35.80
2019-01-23T03:24:01.911Z,35.43
2019-01-23T03:26:30.987Z,38.53
2019-01-23T03:29:00.326Z,34.77
2019-01-23T03:31:29.290Z,35.53
2019-01-23T03:33:59.001Z,34.17
2019-01-23T03:36:28.145Z,37.53
2019-01-23T03:38:57.198Z,37.07
2019-01-23T03:41:26.940Z,35.60
2019-01-23T03:43:56.046Z,34.33
2019-01-23T03:46:25.051Z,38.63
2019-01-23T03:48:54.030Z,36.83
2019-01-23T03:51:23.180Z,36.33
2019-01-23T03:53:52.769Z,36.20
2019-01-23T03:56:21.881Z,36.30
2019-01-23T03:58:50.945Z,35.67
2019-01-23T04:01:19.920Z,35.00
2019-01-23T04:03:48.929Z,36.03
2019-01-23T04:06:17.955Z,36.00
2019-01-23T04:08:46.980Z,36.67
2019-01-23T04:11:16.016Z,38.07
2019-01-23T04:13:45.007Z,36.90
2019-01-23T04:16:14.002Z,38.57
2019-01-23T04:18:42.974Z,39.53
2019-01-23T04:21:11.980Z,37.73
2019-01-23T04:23:41.108Z,35.87
2019-01-23T04:26:10.097Z,38.07
2019-01-23T04:28:39.073Z,35.77
2019-01-23T04:31:09.012Z,36.97
2019-01-23T04:33:37.263Z,35.90
2019-01-23T04:36:06.335Z,36.70
2019-01-23T04:38:35.419Z,36.23
2019-01-23T04:41:04.505Z,38.20
2019-01-23T04:43:33.439Z,38.43
2019-01-23T04:46:02.434Z,37.07
2019-01-23T04:48:31.521Z,36.07
2019-01-23T04:57:33.967Z,33.57
2019-01-23T05:00:03.153Z,32.17
2019-01-23T05:02:32.137Z,35.87
2019-01-23T05:05:01.393Z,34.67
2019-01-23T05:07:30.386Z,37.10
2019-01-23T05:09:59.359Z,32.37
2019-01-23T05:12:28.495Z,34.10
2019-01-23T05:14:57.544Z,37.20
2019-01-23T05:17:26.594Z,35.53
2019-01-23T05:19:55.553Z,32.57
2019-01-23T05:22:24.559Z,35.37
2019-01-23T05:24:53.616Z,36.50
2019-01-23T05:27:22.607Z,34.03
2019-01-23T05:29:54.966Z,35.67
2019-01-23T05:32:20.694Z,35.20
2019-01-23T05:34:49.745Z,37.57
2019-01-23T05:37:18.737Z,33.53
2019-01-23T05:39:47.801Z,36.83
2019-01-23T05:42:16.901Z,36.80
2019-01-23T05:44:46.007Z,35.60
2019-01-23T05:47:15.143Z,35.70
2019-01-23T05:49:44.225Z,38.07
2019-01-23T05:52:13.844Z,37.47
2019-01-23T05:54:42.892Z,36.13
2019-01-23T05:57:11.958Z,38.00
2019-01-23T05:59:41.073Z,36.30
2019-01-23T06:02:10.233Z,36.07
2019-01-23T06:04:39.278Z,36.87
2019-01-23T06:07:08.409Z,35.07
2019-01-23T06:09:37.578Z,35.60
2019-01-23T06:12:06.869Z,32.17
2019-01-23T06:14:36.019Z,37.10
2019-01-23T06:17:05.181Z,34.53
2019-01-23T06:19:34.256Z,37.43
2019-01-23T06:22:03.475Z,36.13
2019-01-23T06:24:32.492Z,39.87
2019-01-23T06:27:01.677Z,37.10
2019-01-23T06:29:32.431Z,39.47
2019-01-23T06:32:01.521Z,36.20
2019-01-23T06:34:33.996Z,38.40
2019-01-23T06:37:03.091Z,37.63
2019-01-23T06:39:32.143Z,41.53
2019-01-23T06:42:01.133Z,38.67
2019-01-23T06:44:30.322Z,39.27
2019-01-23T06:46:59.323Z,40.10
2019-01-23T06:49:28.369Z,39.30
2019-01-23T06:51:57.342Z,41.80
2019-01-23T06:54:26.455Z,40.13
2019-01-23T06:56:55.557Z,39.13
2019-01-23T06:59:24.647Z,40.17
2019-01-23T07:01:53.631Z,39.43
2019-01-23T07:04:22.814Z,43.70
2019-01-23T07:06:52.075Z,41.77
2019-01-23T07:09:21.467Z,46.70
2019-01-23T07:11:50.600Z,41.10
2019-01-23T07:14:19.727Z,43.23
2019-01-23T07:16:48.789Z,45.33
2019-01-23T07:19:20.252Z,45.03
2019-01-23T07:21:49.593Z,44.37
2019-01-23T07:24:18.837Z,46.33
2019-01-23T07:26:47.989Z,47.73
2019-01-23T07:29:17.397Z,48.13
2019-01-23T07:31:47.709Z,48.07
2019-01-23T07:34:18.329Z,48.10
2019-01-23T07:36:47.836Z,47.97
2019-01-23T07:39:17.249Z,46.63
2019-01-23T07:41:46.575Z,48.90
2019-01-23T07:44:17.192Z,51.97
2019-01-23T07:46:47.327Z,50.70
2019-01-23T07:49:17.557Z,50.20
2019-01-23T07:51:47.276Z,45.40
2019-01-23T07:54:17.243Z,53.03
2019-01-23T07:56:46.872Z,50.23
2019-01-23T07:59:15.984Z,53.60
2019-01-23T08:01:48.308Z,51.40
2019-01-23T08:04:17.753Z,54.27
2019-01-23T08:06:47.295Z,55.30
2019-01-23T08:09:17.980Z,58.27
2019-01-23T08:11:47.663Z,57.27
2019-01-23T08:14:16.931Z,57.53
2019-01-23T08:16:46.715Z,57.50
2019-01-23T08:19:16.033Z,54.97
2019-01-23T08:21:45.207Z,58.37
2019-01-23T08:24:18.258Z,54.33
2019-01-23T08:26:48.556Z,60.37
2019-01-23T08:29:17.887Z,59.27
2019-01-23T08:31:47.058Z,61.50
2019-01-23T08:34:16.191Z,61.90
2019-01-23T08:37:06.719Z,62.87
2019-01-23T08:39:36.006Z,62.53
2019-01-23T08:42:08.033Z,65.43
2019-01-23T08:44:37.325Z,60.13
2019-01-23T08:47:06.547Z,63.73
2019-01-23T08:49:35.913Z,61.87
2019-01-23T08:58:50.414Z,61.97
2019-01-23T09:01:19.632Z,68.77
2019-01-23T09:03:50.969Z,68.23
2019-01-23T09:06:20.197Z,70.57
2019-01-23T09:08:49.517Z,63.03
2019-01-23T09:11:19.199Z,67.93
2019-01-23T09:13:48.663Z,71.17
2019-01-23T09:16:17.914Z,71.50
2019-01-23T09:18:47.118Z,71.93
2019-01-23T09:21:17.913Z,75.83
2019-01-23T09:23:47.361Z,73.33
2019-01-23T09:26:16.504Z,67.63
2019-01-23T09:28:45.630Z,70.03
2019-01-23T09:33:26.847Z,71.97
2019-01-23T09:36:48.917Z,73.77
2019-01-23T09:39:28.546Z,71.70
2019-01-23T09:42:10.760Z,71.23
2019-01-23T09:47:19.311Z,73.20
2019-01-23T09:50:05.532Z,70.97
2019-01-23T09:53:14.542Z,70.77
2019-01-23T09:55:43.734Z,73.67
2019-01-23T09:58:13.016Z,77.77
2019-01-23T10:00:42.384Z,78.17
2019-01-23T10:03:12.441Z,76.70
2019-01-23T10:05:43.580Z,81.00
2019-01-23T10:08:12.641Z,78.73
2019-01-23T10:10:41.794Z,82.67
2019-01-23T10:13:11.038Z,79.00
2019-01-23T10:15:45.022Z,85.87
2019-01-23T10:18:14.394Z,84.33
2019-01-23T10:20:43.634Z,70.53
2019-01-23T10:23:12.727Z,67.20
2019-01-23T10:25:43.232Z,74.57
2019-01-23T10:28:12.979Z,78.77
2019-01-23T10:30:42.274Z,78.27
2019-01-23T10:33:13.660Z,80.53
2019-01-23T10:35:44.060Z,79.00
2019-01-23T10:38:13.588Z,81.90
2019-01-23T10:40:43.316Z,81.03
2019-01-23T10:45:59.567Z,80.33
2019-01-23T10:48:38.094Z,79.63
2019-01-23T10:51:05.462Z,77.27
2019-01-23T10:53:41.273Z,79.00
2019-01-23T10:56:10.926Z,82.70
2019-01-23T10:58:41.652Z,83.73
2019-01-23T11:01:13.447Z,73.57
2019-01-23T11:03:42.502Z,79.33
2019-01-23T11:06:12.254Z,82.23
2019-01-23T11:08:41.794Z,88.60
2019-01-23T11:11:10.938Z,81.77
2019-01-23T11:13:40.350Z,80.50
2019-01-23T11:16:10.294Z,80.33
2019-01-23T11:18:40.712Z,76.83
2019-01-23T11:21:10.417Z,76.63
2019-01-23T11:23:39.952Z,79.37
2019-01-23T11:26:10.175Z,79.80
2019-01-23T11:28:39.820Z,77.40
2019-01-23T11:31:09.573Z,78.43
2019-01-23T11:33:38.773Z,77.60
2019-01-23T11:36:08.385Z,81.57
2019-01-23T11:38:38.548Z,78.03
2019-01-23T11:41:08.376Z,82.17
2019-01-23T11:43:38.342Z,68.07
2019-01-23T11:46:08.460Z,78.23
2019-01-23T11:48:38.601Z,75.37
2019-01-23T11:51:08.306Z,72.90
2019-01-23T11:53:37.534Z,65.30
2019-01-23T11:56:08.765Z,75.47
2019-01-23T11:58:36.616Z,78.67
2019-01-23T12:01:05.875Z,66.20
2019-01-23T12:03:34.925Z,77.27
2019-01-23T12:06:05.571Z,69.87
2019-01-23T12:08:34.702Z,78.17
2019-01-23T12:11:03.990Z,72.57
2019-01-23T12:13:33.143Z,73.47
2019-01-23T12:16:02.780Z,75.73
2019-01-23T12:18:31.862Z,76.03
2019-01-23T12:21:01.016Z,73.97
2019-01-23T12:23:30.138Z,73.50
2019-01-23T12:26:01.812Z,73.40
2019-01-23T12:28:31.542Z,77.03
2019-01-23T12:31:01.122Z,74.07
2019-01-23T12:33:30.655Z,71.37
2019-01-23T12:35:59.866Z,72.00
2019-01-23T12:38:29.246Z,75.83
2019-01-23T12:40:58.818Z,73.80
2019-01-23T12:43:28.530Z,77.07
2019-01-23T12:45:57.870Z,74.97
2019-01-23T12:48:27.128Z,73.30
2019-01-23T12:50:56.264Z,73.37
2019-01-23T12:53:25.984Z,78.77
2019-01-23T12:55:55.344Z,73.77
2019-01-23T12:58:24.642Z,97.67
2019-01-23T13:00:54.250Z,85.10
2019-01-23T13:03:24.138Z,75.70
2019-01-23T13:05:59.647Z,62.90
2019-01-23T13:08:30.080Z,66.80
2019-01-23T13:10:59.398Z,105.40
2019-01-23T13:13:28.542Z,108.63
2019-01-23T13:15:57.975Z,77.40
2019-01-23T13:18:27.099Z,73.27
2019-01-23T13:20:57.434Z,64.03
2019-01-23T13:23:33.020Z,67.03
2019-01-23T13:26:02.206Z,70.70
2019-01-23T13:28:32.328Z,67.23
2019-01-23T13:31:01.370Z,70.37
2019-01-23T13:33:30.642Z,69.20
2019-01-23T13:36:00.534Z,71.40
2019-01-23T13:38:29.815Z,65.83
2019-01-23T13:40:59.217Z,66.67
2019-01-23T13:43:28.443Z,65.63
2019-01-23T13:45:58.955Z,65.27
2019-01-23T13:48:31.947Z,68.93
2019-01-23T13:51:03.048Z,58.07
2019-01-23T13:53:35.904Z,62.63
2019-01-23T13:56:06.288Z,54.50
2019-01-23T13:58:51.265Z,49.23
2019-01-23T14:01:20.706Z,59.30
2019-01-23T14:03:53.090Z,58.27
2019-01-23T14:06:22.756Z,53.40
2019-01-23T14:08:52.890Z,57.90
2019-01-23T14:11:23.033Z,58.53
2019-01-23T14:13:52.322Z,55.00
2019-01-23T14:16:21.389Z,56.47
2019-01-23T14:18:59.686Z,54.33
2019-01-23T14:24:07.600Z,52.03
2019-01-23T14:26:36.959Z,52.43
2019-01-23T14:29:06.302Z,51.50
2019-01-23T14:31:35.943Z,51.13
2019-01-23T14:34:07.289Z,51.10
2019-01-23T14:36:39.940Z,50.63
2019-01-23T14:39:12.544Z,50.00
2019-01-23T14:41:45.048Z,50.93
2019-01-23T14:44:14.502Z,43.37
2019-01-23T14:46:48.774Z,42.77
2019-01-23T14:49:22.232Z,42.80
2019-01-23T14:51:54.338Z,46.70
2019-01-23T14:54:24.103Z,46.63
2019-01-23T14:57:01.365Z,46.23
2019-01-23T14:59:31.372Z,48.73
2019-01-23T15:04:47.099Z,44.70
2019-01-23T15:07:17.877Z,45.50
2019-01-23T15:09:50.327Z,44.30
2019-01-23T15:12:28.846Z,40.73
2019-01-23T15:15:05.509Z,45.43
2019-01-23T15:17:35.283Z,38.50
2019-01-23T15:20:07.242Z,35.70
2019-01-23T15:22:40.128Z,43.03
2019-01-23T15:25:14.352Z,39.97
2019-01-23T15:27:48.526Z,35.53
2019-01-23T15:30:20.902Z,35.17
2019-01-23T15:32:50.065Z,33.67
2019-01-23T15:35:19.415Z,38.93
2019-01-23T15:37:48.547Z,35.87
2019-01-23T15:40:26.875Z,30.67
2019-01-23T15:42:56.003Z,33.90
2019-01-23T15:45:25.143Z,36.80
2019-01-23T15:47:54.448Z,31.70
2019-01-23T15:50:24.418Z,34.47
2019-01-23T15:52:53.542Z,30.63
2019-01-23T15:55:23.441Z,31.93
2019-01-23T15:57:53.416Z,29.87
2019-01-23T16:00:27.798Z,31.93
2019-01-23T16:02:56.865Z,32.77
2019-01-23T16:05:28.310Z,32.83
2019-01-23T16:07:58.690Z,31.07
2019-01-23T16:10:27.776Z,29.87
2019-01-23T16:12:56.902Z,39.70
2019-01-23T16:15:27.001Z,31.20
2019-01-23T16:17:57.448Z,30.10
2019-01-23T16:20:25.349Z,32.40
2019-01-23T16:22:54.755Z,27.27
2019-01-23T16:25:23.920Z,27.30
2019-01-23T16:27:52.949Z,28.17
2019-01-23T16:30:24.706Z,28.07
2019-01-23T16:32:53.776Z,28.00
2019-01-23T16:35:23.354Z,27.70
2019-01-23T16:37:52.483Z,24.03
2019-01-23T16:40:21.484Z,24.43
2019-01-23T16:42:50.584Z,26.97
2019-01-23T16:45:25.448Z,29.07
2019-01-23T16:48:00.801Z,27.63
2019-01-23T16:50:30.108Z,23.83
2019-01-23T16:53:00.084Z,22.90
2019-01-23T16:55:29.180Z,23.97
2019-01-23T16:57:58.208Z,26.03
2019-01-23T17:00:27.510Z,24.80
2019-01-23T17:03:05.671Z,24.83
2019-01-23T17:05:41.421Z,24.33
2019-01-23T17:08:13.118Z,20.57
2019-01-23T17:10:44.394Z,25.97
2019-01-23T17:13:18.419Z,25.23
2019-01-23T17:15:55.428Z,24.40
2019-01-23T17:18:38.356Z,25.00
2019-01-23T17:21:09.137Z,26.30
2019-01-23T17:23:42.081Z,20.20
2019-01-23T17:26:16.036Z,24.20
2019-01-23T17:28:53.261Z,22.80
2019-01-23T17:31:26.087Z,25.30
2019-01-23T17:34:00.056Z,23.00
2019-01-23T17:36:29.544Z,22.57
2019-01-23T17:38:58.935Z,21.53
2019-01-23T17:41:30.790Z,27.03
2019-01-23T17:44:00.691Z,23.27
2019-01-23T17:46:30.041Z,23.93
2019-01-23T17:49:04.840Z,26.13
2019-01-23T17:51:38.882Z,26.67
2019-01-23T17:54:08.058Z,26.57
2019-01-23T17:56:37.165Z,25.20
2019-01-23T17:59:12.028Z,27.70
2019-01-23T18:01:41.293Z,23.33
2019-01-23T18:04:10.524Z,24.63
2019-01-23T18:06:42.150Z,21.63
2019-01-23T18:09:16.780Z,23.43
2019-01-23T18:11:48.060Z,24.37
2019-01-23T18:14:17.994Z,24.57
2019-01-23T18:16:47.812Z,26.73
2019-01-23T18:19:17.009Z,26.03
2019-01-23T18:21:46.086Z,26.90
2019-01-23T18:24:15.252Z,26.43
2019-01-23T18:26:45.287Z,24.70
2019-01-23T18:29:14.474Z,25.80
2019-01-23T18:31:48.390Z,26.27
2019-01-23T18:34:51.360Z,22.87
2019-01-23T18:37:36.844Z,25.23
2019-01-23T18:40:18.177Z,24.47
2019-01-23T18:42:59.464Z,24.70
2019-01-23T18:46:09.339Z,27.10
2019-01-23T18:48:57.178Z,27.20
2019-01-23T18:51:37.992Z,27.03
2019-01-23T18:54:07.856Z,25.27
2019-01-23T18:56:37.774Z,26.97
2019-01-23T18:59:10.794Z,26.40
2019-01-23T19:01:41.235Z,27.10
2019-01-23T19:04:23.938Z,27.23
2019-01-23T19:06:54.826Z,26.20
2019-01-23T19:09:23.910Z,26.13
2019-01-23T19:11:52.891Z,25.97
2019-01-23T19:14:24.601Z,27.93
2019-01-23T19:16:52.385Z,25.70
2019-01-23T19:19:22.422Z,27.17
2019-01-23T19:21:55.193Z,26.53
2019-01-23T19:24:21.952Z,26.53
2019-01-23T19:26:52.464Z,23.97
2019-01-23T20:19:31.224Z,25.00
2019-01-23T20:22:33.146Z,21.90
2019-01-23T20:25:43.177Z,24.43
2019-01-23T20:28:26.418Z,24.93
2019-01-23T20:31:07.826Z,27.47
2019-01-23T20:33:46.544Z,28.33
2019-01-23T20:36:17.684Z,25.13
2019-01-23T20:39:12.592Z,25.40
2019-01-23T20:41:48.092Z,26.03
2019-01-23T20:44:20.960Z,26.57
2019-01-23T20:47:00.408Z,26.50
2019-01-23T20:49:34.041Z,27.10
2019-01-23T20:52:07.816Z,26.50
2019-01-23T20:54:42.408Z,27.43
2019-01-23T20:57:11.518Z,25.00
2019-01-23T21:00:07.464Z,28.27
2019-01-23T21:03:01.826Z,25.70
2019-01-23T21:05:42.083Z,26.10
2019-01-23T21:08:24.914Z,29.33
2019-01-23T21:10:56.128Z,27.87
2019-01-23T21:13:29.009Z,26.07
2019-01-23T21:16:19.549Z,27.60
2019-01-23T21:18:48.749Z,25.27
2019-01-23T21:24:14.035Z,29.17
2019-01-23T21:26:55.273Z,27.93
2019-01-23T21:29:32.761Z,27.43
2019-01-23T21:32:17.214Z,29.00
2019-01-23T21:34:48.662Z,27.03
2019-01-23T21:37:18.995Z,29.60
2019-01-23T21:39:48.094Z,26.63
2019-01-23T21:42:17.198Z,27.20
2019-01-23T21:44:46.203Z,26.57
2019-01-23T21:47:15.422Z,27.80
2019-01-23T21:49:44.477Z,22.90
2019-01-23T21:52:13.678Z,26.73
2019-01-23T21:54:44.482Z,26.40
2019-01-23T21:57:13.546Z,27.10
2019-01-23T21:59:42.590Z,29.83
2019-01-23T22:02:11.664Z,28.10
2019-01-23T22:04:40.684Z,27.70
2019-01-23T22:07:09.677Z,28.87
2019-01-23T22:09:39.667Z,28.23
2019-01-23T22:12:08.758Z,28.83
2019-01-23T22:14:39.162Z,23.50
2019-01-23T22:17:08.467Z,26.07
2019-01-23T22:19:37.775Z,27.80
2019-01-23T22:22:07.399Z,28.83
2019-01-23T22:24:36.800Z,27.97
2019-01-23T22:27:05.934Z,27.40
2019-01-23T22:29:37.121Z,26.87
2019-01-23T22:32:06.129Z,27.13
2019-01-23T22:34:35.404Z,25.27
2019-01-23T22:37:04.590Z,24.83
2019-01-23T22:39:33.615Z,27.33
2019-01-23T22:42:03.088Z,26.80
2019-01-23T22:44:32.650Z,26.00
2019-01-23T22:47:01.836Z,23.77
2019-01-23T22:49:31.080Z,24.77
2019-01-23T22:52:01.965Z,24.73
2019-01-23T22:54:31.036Z,23.67
2019-01-23T22:57:00.741Z,25.30
2019-01-23T22:59:29.926Z,25.47
2019-01-23T23:02:00.115Z,25.27
2019-01-23T23:04:29.108Z,26.17
2019-01-23T23:06:58.168Z,29.13
2019-01-23T23:09:27.397Z,26.53
2019-01-23T23:11:56.394Z,25.90
2019-01-23T23:14:25.629Z,26.83
2019-01-23T23:16:54.843Z,25.50
2019-01-23T23:19:24.017Z,25.57
2019-01-23T23:21:53.123Z,27.43
2019-01-23T23:24:22.197Z,27.97
2019-01-23T23:26:51.486Z,27.07
2019-01-23T23:29:20.662Z,27.00
2019-01-23T23:31:49.807Z,27.87
2019-01-23T23:34:19.330Z,27.60
2019-01-23T23:36:48.440Z,25.93
2019-01-23T23:39:19.882Z,28.37
2019-01-23T23:41:49.442Z,27.40
2019-01-23T23:44:20.582Z,28.53
2019-01-23T23:46:49.626Z,26.20
2019-01-23T23:49:18.784Z,28.30
2019-01-23T23:51:48.032Z,27.50
2019-01-23T23:54:17.166Z,27.63
2019-01-23T23:56:46.202Z,27.67
2019-01-23T23:59:28.770Z,25.27
